Time;durP1;ratioP1;P1;durP2;ratioP2;P2;SDS_P1;SDS_P2;PMS_P1;PMS_P2;Temp;Humidity;BMP_temperature;BMP_pressure;BME280_temperature;BME280_humidity;BME280_pressure;Samples;Min_cycle;Max_cycle;Signal;HPM_P1;HPM_P2
2021/06/28 00:01:53;;;;;;;18.15;8.30;;;;;;;;;;143731;573;45913;-56
2021/06/28 00:04:20;;;;;;;13.57;8.27;;;;;;;;;;143736;627;46021;-56
2021/06/28 00:06:47;;;;;;;15.85;8.60;;;;;;;;;;143732;592;47022;-56
2021/06/28 00:09:14;;;;;;;12.90;7.60;;;;;;;;;;143732;563;47010;-56
2021/06/28 00:11:41;;;;;;;13.48;7.75;;;;;;;;;;143733;569;46013;-56
2021/06/28 00:14:08;;;;;;;16.95;7.82;;;;;;;;;;143737;585;46010;-56
2021/06/28 00:16:36;;;;;;;16.52;8.95;;;;;;;;;;143732;582;47020;-55
2021/06/28 00:19:03;;;;;;;19.65;9.05;;;;;;;;;;143733;634;46011;-56
2021/06/28 00:21:31;;;;;;;21.08;9.85;;;;;;;;;;143734;593;45020;-56
2021/06/28 00:23:58;;;;;;;20.85;8.15;;;;;;;;;;143736;606;46011;-55
2021/06/28 00:26:25;;;;;;;18.23;8.73;;;;;;;;;;143730;629;47021;-56
2021/06/28 00:28:52;;;;;;;20.02;8.63;;;;;;;;;;143732;575;47010;-56
2021/06/28 00:31:19;;;;;;;13.45;8.20;;;;;;;;;;143733;566;45020;-56
2021/06/28 00:33:46;;;;;;;18.75;9.10;;;;;;;;;;143737;609;46028;-56
2021/06/28 00:36:14;;;;;;;20.70;9.15;;;;;;;;;;143732;614;47020;-56
2021/06/28 00:38:41;;;;;;;13.60;8.02;;;;;;;;;;143733;569;46010;-56
2021/06/28 00:41:08;;;;;;;22.58;9.18;;;;;;;;;;143732;567;45021;-56
2021/06/28 00:43:35;;;;;;;15.50;8.32;;;;;;;;;;143737;566;46010;-57
2021/06/28 00:46:02;;;;;;;15.40;7.68;;;;;;;;;;143731;609;47032;-56
2021/06/28 00:48:29;;;;;;;16.75;8.73;;;;;;;;;;143732;585;46027;-56
2021/06/28 00:50:57;;;;;;;17.65;8.27;;;;;;;;;;143737;613;45020;-56
2021/06/28 00:53:24;;;;;;;16.08;8.13;;;;;;;;;;143737;569;46020;-56
2021/06/28 00:55:53;;;;;;;17.42;8.55;;;;;;;;;;143732;602;47022;-56
2021/06/28 00:58:20;;;;;;;15.25;8.30;;;;;;;;;;143731;571;47010;-56
2021/06/28 01:00:48;;;;;;;16.58;7.47;;;;;;;;;;143731;604;46020;-56
2021/06/28 01:03:15;;;;;;;19.12;9.45;;;;;;;;;;143736;581;46010;-56
2021/06/28 01:05:43;;;;;;;18.98;9.32;;;;;;;;;;143732;571;47022;-56
2021/06/28 01:08:10;;;;;;;14.35;8.05;;;;;;;;;;143735;607;46010;-56
2021/06/28 01:10:38;;;;;;;14.75;7.90;;;;;;;;;;143733;586;46018;-56
2021/06/28 01:13:06;;;;;;;19.92;8.85;;;;;;;;;;143736;596;46020;-56
2021/06/28 01:15:33;;;;;;;15.10;8.95;;;;;;;;;;143733;587;47020;-56
2021/06/28 01:18:01;;;;;;;23.45;9.25;;;;;;;;;;143732;570;47010;-56
2021/06/28 01:20:30;;;;;;;25.90;9.10;;;;;;;;;;143735;591;45020;-56
2021/06/28 01:23:26;;;;;;;14.80;8.75;;;;;;;;;;143736;593;46020;-56
2021/06/28 01:25:57;;;;;;;16.05;8.20;;;;;;;;;;143732;573;47021;-56
2021/06/28 01:28:25;;;;;;;15.05;8.02;;;;;;;;;;143731;614;47010;-56
2021/06/28 01:30:54;;;;;;;15.15;7.75;;;;;;;;;;143733;571;46020;-56
2021/06/28 01:33:21;;;;;;;20.23;8.75;;;;;;;;;;143737;571;46021;-56
2021/06/28 01:35:48;;;;;;;16.10;7.90;;;;;;;;;;143733;566;47042;-56
2021/06/28 01:38:16;;;;;;;29.37;9.70;;;;;;;;;;143731;635;47010;-56
2021/06/28 01:40:43;;;;;;;20.15;9.00;;;;;;;;;;143734;604;45911;-56
2021/06/28 01:43:11;;;;;;;19.10;8.00;;;;;;;;;;143737;671;46030;-56
2021/06/28 01:45:38;;;;;;;18.02;8.40;;;;;;;;;;143732;613;47020;-56
2021/06/28 01:48:06;;;;;;;23.05;9.60;;;;;;;;;;143731;567;46011;-55
2021/06/28 01:50:36;;;;;;;17.60;8.02;;;;;;;;;;143733;582;45020;-56
2021/06/28 01:53:04;;;;;;;13.85;8.63;;;;;;;;;;143737;569;46020;-56
2021/06/28 01:55:32;;;;;;;15.77;8.63;;;;;;;;;;143732;588;47023;-56
2021/06/28 01:58:02;;;;;;;14.85;8.23;;;;;;;;;;143733;610;47010;-55
2021/06/28 02:00:35;;;;;;;14.20;8.40;;;;;;;;;;143734;590;45020;-56
2021/06/28 02:03:11;;;;;;;20.88;9.38;;;;;;;;;;143736;604;46021;-55
2021/06/28 02:05:44;;;;;;;16.05;9.05;;;;;;;;;;143733;577;47020;-55
2021/06/28 02:08:13;;;;;;;19.77;10.25;;;;;;;;;;143732;614;47010;-56
2021/06/28 02:10:42;;;;;;;18.95;9.68;;;;;;;;;;143732;616;45021;-56
2021/06/28 02:13:10;;;;;;;18.50;8.82;;;;;;;;;;143735;598;47010;-56
2021/06/28 02:15:37;;;;;;;20.23;8.63;;;;;;;;;;143732;675;47020;-55
2021/06/28 02:18:04;;;;;;;18.87;8.95;;;;;;;;;;143733;620;46010;-56
2021/06/28 02:20:31;;;;;;;18.75;9.88;;;;;;;;;;143733;571;45910;-56
2021/06/28 02:23:41;;;;;;;13.45;8.50;;;;;;;;;;143737;593;46020;-56
2021/06/28 02:26:10;;;;;;;18.87;9.43;;;;;;;;;;143733;774;47023;-55
2021/06/28 02:28:48;;;;;;;20.08;8.27;;;;;;;;;;143732;581;47010;-56
2021/06/28 02:31:21;;;;;;;18.92;8.57;;;;;;;;;;143733;608;46012;-55
2021/06/28 02:33:50;;;;;;;14.87;8.02;;;;;;;;;;143737;585;46010;-56
2021/06/28 02:36:18;;;;;;;19.17;8.13;;;;;;;;;;143733;639;47020;-55
2021/06/28 02:38:46;;;;;;;18.80;8.10;;;;;;;;;;143734;631;47011;-55
2021/06/28 02:41:13;;;;;;;18.67;8.95;;;;;;;;;;143734;619;45021;-56
2021/06/28 02:43:41;;;;;;;18.15;9.77;;;;;;;;;;143735;603;47010;-56
2021/06/28 02:46:10;;;;;;;14.98;8.43;;;;;;;;;;143731;602;47021;-56
2021/06/28 02:48:37;;;;;;;20.95;9.57;;;;;;;;;;143734;623;46010;-56
2021/06/28 02:51:06;;;;;;;16.65;7.60;;;;;;;;;;143735;588;45020;-57
2021/06/28 02:53:33;;;;;;;15.68;8.77;;;;;;;;;;143736;586;46011;-56
2021/06/28 02:56:12;;;;;;;22.60;10.65;;;;;;;;;;143726;621;47020;-56
2021/06/28 02:58:40;;;;;;;36.90;15.85;;;;;;;;;;143733;569;46918;-56
2021/06/28 03:01:08;;;;;;;19.65;10.73;;;;;;;;;;143734;572;46012;-56
2021/06/28 03:03:35;;;;;;;16.17;8.88;;;;;;;;;;143736;587;46010;-56
2021/06/28 03:06:02;;;;;;;15.15;8.35;;;;;;;;;;143732;601;47022;-55
2021/06/28 03:08:30;;;;;;;17.50;9.25;;;;;;;;;;143733;570;46013;-55
2021/06/28 03:10:57;;;;;;;14.55;8.38;;;;;;;;;;143732;596;45021;-57
2021/06/28 03:13:24;;;;;;;25.75;10.35;;;;;;;;;;143737;573;46020;-56
2021/06/28 03:15:51;;;;;;;24.90;9.48;;;;;;;;;;143731;564;47021;-56
2021/06/28 03:18:19;;;;;;;16.70;8.82;;;;;;;;;;143733;569;46013;-56
2021/06/28 03:20:45;;;;;;;15.90;8.52;;;;;;;;;;143736;596;45020;-56
2021/06/28 03:23:12;;;;;;;18.15;8.20;;;;;;;;;;143736;566;47011;-56
2021/06/28 03:25:40;;;;;;;18.15;8.48;;;;;;;;;;143732;595;47023;-56
2021/06/28 03:28:07;;;;;;;18.52;7.97;;;;;;;;;;143732;607;47012;-56
2021/06/28 03:30:34;;;;;;;17.55;8.18;;;;;;;;;;143736;581;45021;-56
2021/06/28 03:33:01;;;;;;;24.80;11.52;;;;;;;;;;143737;616;46021;-56
2021/06/28 03:35:28;;;;;;;17.25;9.13;;;;;;;;;;143733;621;47020;-56
2021/06/28 03:37:55;;;;;;;23.75;10.13;;;;;;;;;;143731;582;47013;-56
2021/06/28 03:40:22;;;;;;;15.02;8.20;;;;;;;;;;143734;705;45021;-57
2021/06/28 03:42:49;;;;;;;23.35;9.85;;;;;;;;;;143737;601;46010;-57
2021/06/28 03:45:17;;;;;;;17.40;9.48;;;;;;;;;;143731;600;47022;-56
2021/06/28 03:47:44;;;;;;;17.75;9.05;;;;;;;;;;143733;577;46013;-56
2021/06/28 03:50:13;;;;;;;16.77;8.93;;;;;;;;;;143733;603;45915;-56
2021/06/28 03:52:40;;;;;;;18.02;8.55;;;;;;;;;;143737;580;46011;-57
2021/06/28 03:55:08;;;;;;;22.10;9.45;;;;;;;;;;143733;580;47021;-57
2021/06/28 03:57:35;;;;;;;22.92;8.63;;;;;;;;;;143733;612;46012;-58
2021/06/28 04:00:07;;;;;;;20.33;9.20;;;;;;;;;;143732;621;45020;-57
2021/06/28 04:02:36;;;;;;;19.67;8.45;;;;;;;;;;143736;574;46021;-57
2021/06/28 04:05:05;;;;;;;20.77;8.45;;;;;;;;;;143732;564;47020;-57
2021/06/28 04:07:32;;;;;;;21.45;8.82;;;;;;;;;;143731;596;47012;-58
2021/06/28 04:10:00;;;;;;;27.17;9.85;;;;;;;;;;143734;637;45021;-58
2021/06/28 04:12:27;;;;;;;23.15;8.35;;;;;;;;;;143737;565;46010;-57
2021/06/28 04:14:54;;;;;;;17.80;8.20;;;;;;;;;;143732;609;47021;-57
2021/06/28 04:17:21;;;;;;;20.88;7.70;;;;;;;;;;143735;567;46012;-58
2021/06/28 04:19:48;;;;;;;26.17;8.85;;;;;;;;;;143734;606;45020;-58
2021/06/28 04:22:15;;;;;;;18.62;8.77;;;;;;;;;;143739;582;46020;-59
2021/06/28 04:24:42;;;;;;;27.35;9.50;;;;;;;;;;143732;565;47023;-57
2021/06/28 04:27:09;;;;;;;18.10;8.88;;;;;;;;;;143733;582;46033;-57
2021/06/28 04:29:36;;;;;;;26.55;9.88;;;;;;;;;;143735;613;45020;-57
2021/06/28 04:32:04;;;;;;;25.52;9.00;;;;;;;;;;143735;694;47021;-57
2021/06/28 04:34:32;;;;;;;21.75;9.27;;;;;;;;;;143733;573;47020;-58
2021/06/28 04:36:59;;;;;;;38.20;11.65;;;;;;;;;;143732;604;46010;-58
2021/06/28 04:39:25;;;;;;;35.10;10.70;;;;;;;;;;143733;624;46013;-57
2021/06/28 04:41:52;;;;;;;19.70;8.27;;;;;;;;;;143738;572;46020;-61
2021/06/28 04:44:20;;;;;;;27.98;12.63;;;;;;;;;;143732;569;47020;-58
2021/06/28 04:46:47;;;;;;;32.58;10.90;;;;;;;;;;143733;567;46010;-59
2021/06/28 04:49:13;;;;;;;22.90;7.95;;;;;;;;;;143733;564;45911;-59
2021/06/28 04:51:41;;;;;;;28.23;8.63;;;;;;;;;;143736;621;47010;-59
2021/06/28 04:54:08;;;;;;;20.33;8.52;;;;;;;;;;143731;581;47021;-60
2021/06/28 04:56:35;;;;;;;23.73;8.32;;;;;;;;;;143733;590;46020;-59
2021/06/28 04:59:02;;;;;;;30.37;8.75;;;;;;;;;;143731;646;45913;-59
2021/06/28 05:01:29;;;;;;;32.22;8.13;;;;;;;;;;143737;597;46010;-59
2021/06/28 05:03:56;;;;;;;23.80;7.93;;;;;;;;;;143734;595;47020;-59
2021/06/28 05:06:23;;;;;;;17.10;7.30;;;;;;;;;;143735;604;46020;-59
2021/06/28 05:08:50;;;;;;;17.58;7.50;;;;;;;;;;143733;570;46023;-59
2021/06/28 05:11:17;;;;;;;18.45;7.32;;;;;;;;;;143737;587;46020;-59
2021/06/28 05:13:45;;;;;;;18.73;6.57;;;;;;;;;;143731;591;47022;-59
2021/06/28 05:16:12;;;;;;;18.85;7.18;;;;;;;;;;143734;577;46028;-59
2021/06/28 05:18:39;;;;;;;27.92;7.95;;;;;;;;;;143734;588;45922;-59
2021/06/28 05:21:06;;;;;;;18.80;6.93;;;;;;;;;;143739;572;46010;-58
2021/06/28 05:23:33;;;;;;;27.20;8.02;;;;;;;;;;143733;577;47023;-58
2021/06/28 05:26:00;;;;;;;21.20;8.25;;;;;;;;;;143734;632;46010;-59
2021/06/28 05:28:27;;;;;;;21.67;8.05;;;;;;;;;;143734;615;45020;-59
2021/06/28 05:30:55;;;;;;;19.35;7.37;;;;;;;;;;143738;574;46011;-58
2021/06/28 05:33:23;;;;;;;25.33;8.57;;;;;;;;;;143733;573;47037;-59
2021/06/28 05:35:50;;;;;;;29.48;9.27;;;;;;;;;;143734;584;46010;-60
2021/06/28 05:38:17;;;;;;;28.35;8.65;;;;;;;;;;143732;583;45021;-59
2021/06/28 05:40:44;;;;;;;24.67;8.48;;;;;;;;;;143736;604;46010;-59
2021/06/28 05:43:11;;;;;;;22.05;7.78;;;;;;;;;;143732;620;47022;-58
2021/06/28 05:45:39;;;;;;;25.98;8.20;;;;;;;;;;143732;611;47010;-59
2021/06/28 05:48:06;;;;;;;25.17;7.80;;;;;;;;;;143736;634;45020;-59
2021/06/28 05:50:33;;;;;;;22.70;7.65;;;;;;;;;;143738;590;46010;-57
2021/06/28 05:53:02;;;;;;;19.37;6.57;;;;;;;;;;143734;652;47021;-59
2021/06/28 05:55:29;;;;;;;23.33;7.30;;;;;;;;;;143733;650;47010;-58
2021/06/28 05:57:56;;;;;;;16.42;7.35;;;;;;;;;;143733;639;45913;-57
2021/06/28 06:00:24;;;;;;;16.37;7.40;;;;;;;;;;143739;617;46010;-57
2021/06/28 06:02:51;;;;;;;20.75;8.05;;;;;;;;;;143732;606;47023;-58
2021/06/28 06:05:18;;;;;;;23.77;8.23;;;;;;;;;;143734;583;46026;-57
2021/06/28 06:07:46;;;;;;;17.55;7.65;;;;;;;;;;143734;651;46021;-59
2021/06/28 06:10:15;;;;;;;23.10;8.20;;;;;;;;;;143737;564;47010;-57
2021/06/28 06:12:41;;;;;;;27.58;8.07;;;;;;;;;;143734;636;47022;-58
2021/06/28 06:15:10;;;;;;;32.40;7.87;;;;;;;;;;143733;596;46029;-57
2021/06/28 06:17:38;;;;;;;20.75;7.50;;;;;;;;;;143734;641;45020;-57
2021/06/28 06:20:06;;;;;;;22.55;7.43;;;;;;;;;;143738;647;46010;-57
2021/06/28 06:22:34;;;;;;;26.15;8.18;;;;;;;;;;143735;677;47021;-57
2021/06/28 06:25:01;;;;;;;14.85;7.40;;;;;;;;;;143732;691;47029;-57
2021/06/28 06:27:28;;;;;;;18.45;7.00;;;;;;;;;;143733;654;45020;-58
2021/06/28 06:29:56;;;;;;;15.80;6.97;;;;;;;;;;143737;696;46010;-58
2021/06/28 06:32:23;;;;;;;18.73;6.72;;;;;;;;;;143734;681;47020;-58
2021/06/28 06:34:50;;;;;;;18.00;7.05;;;;;;;;;;143732;644;46919;-58
2021/06/28 06:37:18;;;;;;;15.27;6.60;;;;;;;;;;143734;596;45913;-58
2021/06/28 06:39:45;;;;;;;13.90;6.55;;;;;;;;;;143738;617;46020;-58
2021/06/28 06:42:12;;;;;;;20.48;6.55;;;;;;;;;;143732;608;47020;-58
2021/06/28 06:44:39;;;;;;;22.20;6.20;;;;;;;;;;143731;718;47013;-57
2021/06/28 06:47:06;;;;;;;20.10;7.05;;;;;;;;;;143735;624;46012;-58
2021/06/28 06:49:33;;;;;;;24.80;7.05;;;;;;;;;;143739;659;46010;-57
2021/06/28 06:52:00;;;;;;;22.87;7.47;;;;;;;;;;143734;666;47022;-58
2021/06/28 06:54:27;;;;;;;16.95;6.32;;;;;;;;;;143735;657;46012;-58
2021/06/28 06:56:54;;;;;;;23.90;6.32;;;;;;;;;;143736;577;45020;-58
2021/06/28 06:59:21;;;;;;;17.62;6.57;;;;;;;;;;143738;618;46011;-57
2021/06/28 07:01:49;;;;;;;21.42;6.62;;;;;;;;;;143735;622;47020;-57
2021/06/28 07:04:16;;;;;;;20.27;7.07;;;;;;;;;;143732;566;48025;-57
2021/06/28 07:06:43;;;;;;;20.08;6.60;;;;;;;;;;143736;571;46037;-57
2021/06/28 07:09:10;;;;;;;21.67;7.30;;;;;;;;;;143739;617;46010;-58
2021/06/28 07:11:37;;;;;;;16.90;6.50;;;;;;;;;;143734;565;47018;-58
2021/06/28 07:14:04;;;;;;;22.80;8.05;;;;;;;;;;143734;589;47012;-58
2021/06/28 07:16:31;;;;;;;22.08;7.65;;;;;;;;;;143736;580;45019;-58
2021/06/28 07:19:03;;;;;;;16.70;6.50;;;;;;;;;;143740;688;46010;-57
2021/06/28 07:21:30;;;;;;;20.27;7.40;;;;;;;;;;143736;627;47020;-58
2021/06/28 07:23:57;;;;;;;22.90;7.20;;;;;;;;;;143734;573;47012;-58
2021/06/28 07:26:25;;;;;;;17.37;7.15;;;;;;;;;;143736;672;45018;-58
2021/06/28 07:28:53;;;;;;;19.48;6.90;;;;;;;;;;143737;619;46022;-58
2021/06/28 07:31:21;;;;;;;21.08;6.80;;;;;;;;;;143735;627;47018;-57
2021/06/28 07:33:48;;;;;;;14.13;6.57;;;;;;;;;;143733;653;47012;-57
2021/06/28 07:36:15;;;;;;;18.10;6.07;;;;;;;;;;143735;587;45915;-57
2021/06/28 07:38:42;;;;;;;22.60;7.28;;;;;;;;;;143738;579;46022;-57
2021/06/28 07:41:09;;;;;;;18.67;6.28;;;;;;;;;;143734;576;47020;-57
2021/06/28 07:43:37;;;;;;;22.60;6.62;;;;;;;;;;143735;610;46013;-58
2021/06/28 07:46:04;;;;;;;19.87;6.78;;;;;;;;;;143735;587;46012;-57
2021/06/28 07:48:31;;;;;;;14.63;6.93;;;;;;;;;;143738;576;46022;-57
2021/06/28 07:50:58;;;;;;;18.33;6.15;;;;;;;;;;143735;570;47018;-57
2021/06/28 07:53:26;;;;;;;21.80;7.15;;;;;;;;;;143736;582;46012;-58
2021/06/28 07:55:53;;;;;;;22.02;6.75;;;;;;;;;;143735;569;46012;-58
2021/06/28 07:58:20;;;;;;;19.83;7.80;;;;;;;;;;143738;631;46022;-58
2021/06/28 08:00:47;;;;;;;19.17;7.03;;;;;;;;;;143735;577;47021;-58
2021/06/28 08:03:14;;;;;;;18.30;6.47;;;;;;;;;;143736;613;46031;-59
2021/06/28 08:05:41;;;;;;;18.40;6.70;;;;;;;;;;143736;619;45019;-58
2021/06/28 08:08:08;;;;;;;16.25;6.18;;;;;;;;;;143738;640;46010;-58
2021/06/28 08:10:36;;;;;;;20.02;6.95;;;;;;;;;;143735;564;47018;-58
2021/06/28 08:13:03;;;;;;;24.23;6.87;;;;;;;;;;143733;576;47013;-58
2021/06/28 08:15:30;;;;;;;27.98;7.28;;;;;;;;;;143736;571;45018;-59
2021/06/28 08:17:57;;;;;;;17.90;6.62;;;;;;;;;;143739;570;46010;-59
2021/06/28 08:20:24;;;;;;;20.70;7.28;;;;;;;;;;143735;619;47019;-58
2021/06/28 08:22:51;;;;;;;20.37;7.12;;;;;;;;;;143735;570;46012;-59
2021/06/28 08:25:22;;;;;;;17.08;6.40;;;;;;;;;;143736;570;45018;-60
2021/06/28 08:27:50;;;;;;;16.98;6.95;;;;;;;;;;143739;633;46010;-58
2021/06/28 08:30:18;;;;;;;18.80;6.53;;;;;;;;;;143733;585;47021;-59
2021/06/28 08:32:45;;;;;;;19.00;7.53;;;;;;;;;;143735;618;46012;-58
2021/06/28 08:35:12;;;;;;;21.73;6.85;;;;;;;;;;143736;580;45019;-58
2021/06/28 08:37:39;;;;;;;13.77;6.87;;;;;;;;;;143738;623;47010;-58
2021/06/28 08:40:08;;;;;;;19.12;7.20;;;;;;;;;;143733;579;47020;-59
2021/06/28 08:42:35;;;;;;;20.08;6.57;;;;;;;;;;143733;592;47013;-58
2021/06/28 08:45:03;;;;;;;21.65;7.03;;;;;;;;;;143735;716;46012;-58
2021/06/28 08:47:31;;;;;;;17.92;7.00;;;;;;;;;;143739;564;46022;-59
2021/06/28 08:49:58;;;;;;;21.65;6.50;;;;;;;;;;143734;573;47019;-59
2021/06/28 08:52:26;;;;;;;22.42;7.32;;;;;;;;;;143735;635;46012;-58
2021/06/28 08:54:53;;;;;;;24.00;6.47;;;;;;;;;;143734;585;45018;-58
2021/06/28 08:57:20;;;;;;;19.92;6.10;;;;;;;;;;143738;617;46022;-58
2021/06/28 08:59:48;;;;;;;15.10;6.12;;;;;;;;;;143734;614;47021;-58
2021/06/28 09:02:15;;;;;;;23.17;7.30;;;;;;;;;;143735;614;46012;-58
2021/06/28 09:05:04;;;;;;;16.02;6.50;;;;;;;;;;143735;593;45018;-59
2021/06/28 09:07:31;;;;;;;20.67;7.22;;;;;;;;;;143731;648;50035;-58
2021/06/28 09:09:58;;;;;;;24.30;7.12;;;;;;;;;;143735;584;47020;-58
2021/06/28 09:12:25;;;;;;;15.75;7.50;;;;;;;;;;143734;565;47012;-58
2021/06/28 09:14:58;;;;;;;20.75;7.97;;;;;;;;;;143737;596;45019;-58
2021/06/28 09:17:36;;;;;;;21.40;7.50;;;;;;;;;;143739;645;46012;-59
2021/06/28 09:20:23;;;;;;;20.65;7.00;;;;;;;;;;143736;581;46020;-58
2021/06/28 09:22:51;;;;;;;27.40;7.45;;;;;;;;;;143733;586;47012;-59
2021/06/28 09:25:35;;;;;;;17.73;6.60;;;;;;;;;;143735;585;45018;-59
2021/06/28 09:28:03;;;;;;;26.98;7.40;;;;;;;;;;143738;606;47039;-59
2021/06/28 09:30:31;;;;;;;22.33;7.12;;;;;;;;;;143734;606;47018;-59
2021/06/28 09:32:59;;;;;;;22.58;7.25;;;;;;;;;;143735;588;46029;-60
2021/06/28 09:35:40;;;;;;;16.83;6.53;;;;;;;;;;143734;672;46006;-59
2021/06/28 09:38:09;;;;;;;18.52;6.35;;;;;;;;;;143734;582;49010;-60
2021/06/28 09:40:37;;;;;;;21.90;7.65;;;;;;;;;;143736;608;46020;-59
2021/06/28 09:43:27;;;;;;;19.00;6.57;;;;;;;;;;143734;570;47013;-60
2021/06/28 09:45:55;;;;;;;16.77;6.60;;;;;;;;;;143735;564;45018;-61
2021/06/28 09:48:27;;;;;;;17.33;6.90;;;;;;;;;;143736;613;48022;-59
2021/06/28 09:51:24;;;;;;;19.42;8.10;;;;;;;;;;143726;624;50012;-59
2021/06/28 09:53:53;;;;;;;15.38;6.37;;;;;;;;;;143726;579;49021;-59
2021/06/28 09:56:34;;;;;;;16.10;7.07;;;;;;;;;;143734;581;45018;-60
2021/06/28 09:59:32;;;;;;;21.75;7.60;;;;;;;;;;143737;590;47010;-60
2021/06/28 10:02:22;;;;;;;17.45;6.35;;;;;;;;;;143729;585;51018;-60
2021/06/28 10:05:05;;;;;;;17.95;5.93;;;;;;;;;;143734;579;47013;-60
2021/06/28 10:07:34;;;;;;;18.83;5.97;;;;;;;;;;143734;620;45019;-61
2021/06/28 10:10:33;;;;;;;13.90;6.18;;;;;;;;;;143736;576;47010;-61
2021/06/28 10:13:05;;;;;;;19.75;6.68;;;;;;;;;;143734;657;47019;-60
2021/06/28 10:15:40;;;;;;;16.15;5.22;;;;;;;;;;143743;670;46012;-61
2021/06/28 10:18:09;;;;;;;18.45;6.68;;;;;;;;;;143747;587;46014;-61
2021/06/28 10:20:40;;;;;;;12.32;5.28;;;;;;;;;;143751;641;47023;-60
2021/06/28 10:23:08;;;;;;;15.52;5.55;;;;;;;;;;143748;564;47043;-61
2021/06/28 10:25:37;;;;;;;13.07;5.60;;;;;;;;;;143748;606;46026;-60
2021/06/28 10:28:04;;;;;;;12.82;5.57;;;;;;;;;;143749;584;45019;-61
2021/06/28 10:30:32;;;;;;;13.13;5.20;;;;;;;;;;143754;595;45022;-60
2021/06/28 10:33:08;;;;;;;14.43;5.10;;;;;;;;;;143750;613;47018;-60
2021/06/28 10:35:38;;;;;;;14.55;5.28;;;;;;;;;;143749;594;46034;-60
2021/06/28 10:38:12;;;;;;;21.10;5.68;;;;;;;;;;143744;592;45018;-60
2021/06/28 10:40:48;;;;;;;13.30;4.97;;;;;;;;;;143754;564;45022;-60
2021/06/28 10:43:27;;;;;;;15.50;5.43;;;;;;;;;;143749;570;47019;-60
2021/06/28 10:45:55;;;;;;;14.65;5.12;;;;;;;;;;143749;664;46012;-60
2021/06/28 10:48:24;;;;;;;12.18;4.55;;;;;;;;;;143750;585;45032;-60
2021/06/28 10:51:19;;;;;;;14.93;5.22;;;;;;;;;;143752;625;46023;-60
2021/06/28 10:54:06;;;;;;;13.15;5.43;;;;;;;;;;143748;582;47018;-59
2021/06/28 10:56:53;;;;;;;14.25;4.97;;;;;;;;;;143749;612;46011;-59
2021/06/28 10:59:25;;;;;;;16.15;5.60;;;;;;;;;;143749;576;45021;-60
2021/06/28 11:02:03;;;;;;;13.43;5.10;;;;;;;;;;143752;583;46022;-59
2021/06/28 11:04:36;;;;;;;15.15;5.43;;;;;;;;;;143742;572;47018;-59
2021/06/28 11:07:22;;;;;;;11.98;5.60;;;;;;;;;;143745;581;47010;-60
2021/06/28 11:09:58;;;;;;;15.57;4.82;;;;;;;;;;143750;631;45018;-60
2021/06/28 11:12:28;;;;;;;17.02;4.78;;;;;;;;;;143753;603;45023;-60
2021/06/28 11:15:07;;;;;;;11.73;4.87;;;;;;;;;;143749;566;47018;-60
2021/06/28 11:17:46;;;;;;;17.62;5.18;;;;;;;;;;143749;596;47010;-60
2021/06/28 11:20:39;;;;;;;14.68;4.93;;;;;;;;;;143750;604;46037;-61
2021/06/28 11:23:25;;;;;;;14.68;5.15;;;;;;;;;;143750;597;46010;-60
2021/06/28 11:25:56;;;;;;;18.15;5.37;;;;;;;;;;143747;625;47022;-60
2021/06/28 11:28:35;;;;;;;7.78;4.70;;;;;;;;;;143744;589;47010;-60
2021/06/28 11:31:16;;;;;;;12.45;5.00;;;;;;;;;;143741;594;45020;-61
2021/06/28 11:33:49;;;;;;;11.75;4.80;;;;;;;;;;143751;579;46020;-60
2021/06/28 11:36:44;;;;;;;11.70;4.60;;;;;;;;;;143747;572;47021;-59
2021/06/28 11:39:28;;;;;;;11.10;5.12;;;;;;;;;;143742;609;47010;-60
2021/06/28 11:42:16;;;;;;;10.55;4.53;;;;;;;;;;143746;613;46012;-59
2021/06/28 11:45:07;;;;;;;10.25;4.72;;;;;;;;;;143750;593;45020;-60
2021/06/28 11:48:07;;;;;;;14.57;5.45;;;;;;;;;;143749;569;46020;-60
2021/06/28 11:50:37;;;;;;;13.38;4.82;;;;;;;;;;143746;677;46034;-60
2021/06/28 11:53:08;;;;;;;13.60;5.30;;;;;;;;;;143746;618;45020;-59
2021/06/28 11:55:37;;;;;;;16.65;5.60;;;;;;;;;;143751;604;45020;-60
2021/06/28 11:58:04;;;;;;;14.52;5.57;;;;;;;;;;143739;569;47023;-60
2021/06/28 12:00:31;;;;;;;12.10;4.95;;;;;;;;;;143740;574;47012;-60
2021/06/28 12:03:15;;;;;;;11.27;5.30;;;;;;;;;;143748;589;45020;-60
2021/06/28 12:05:45;;;;;;;11.48;4.50;;;;;;;;;;143749;585;46021;-60
2021/06/28 12:08:14;;;;;;;13.13;5.15;;;;;;;;;;143747;647;47020;-60
2021/06/28 12:10:42;;;;;;;13.80;4.87;;;;;;;;;;143746;585;47012;-61
2021/06/28 12:13:09;;;;;;;12.93;4.75;;;;;;;;;;143746;564;45021;-60
2021/06/28 12:15:36;;;;;;;11.60;4.70;;;;;;;;;;143749;665;46020;-60
2021/06/28 12:18:07;;;;;;;17.33;5.85;;;;;;;;;;143747;578;47020;-60
2021/06/28 12:20:36;;;;;;;17.77;4.95;;;;;;;;;;143743;578;47012;-61
2021/06/28 12:23:09;;;;;;;13.52;4.93;;;;;;;;;;143743;599;45020;-60
2021/06/28 12:25:36;;;;;;;15.98;5.32;;;;;;;;;;143750;597;46020;-60
2021/06/28 12:28:04;;;;;;;10.88;4.80;;;;;;;;;;143747;564;47021;-61
2021/06/28 12:30:31;;;;;;;11.75;5.37;;;;;;;;;;143746;656;46020;-60
2021/06/28 12:33:01;;;;;;;11.18;5.20;;;;;;;;;;143749;581;45021;-60
2021/06/28 12:35:30;;;;;;;12.05;5.03;;;;;;;;;;143752;675;45021;-61
2021/06/28 12:37:59;;;;;;;11.80;5.12;;;;;;;;;;143746;654;47020;-60
2021/06/28 12:40:36;;;;;;;11.27;5.15;;;;;;;;;;143747;590;46013;-61
2021/06/28 12:43:13;;;;;;;12.40;5.43;;;;;;;;;;143749;584;45913;-61
2021/06/28 12:45:50;;;;;;;9.75;4.93;;;;;;;;;;143751;578;46020;-61
2021/06/28 12:48:28;;;;;;;13.00;5.72;;;;;;;;;;143738;572;47022;-61
2021/06/28 12:51:04;;;;;;;12.75;5.68;;;;;;;;;;143747;602;47012;-62
2021/06/28 12:53:32;;;;;;;14.77;5.90;;;;;;;;;;143750;601;45020;-61
2021/06/28 12:56:19;;;;;;;21.05;5.30;;;;;;;;;;143750;564;46020;-62
2021/06/28 12:58:54;;;;;;;13.52;5.75;;;;;;;;;;143747;579;47030;-61
2021/06/28 13:01:40;;;;;;;11.20;5.03;;;;;;;;;;143746;569;47012;-61
2021/06/28 13:04:23;;;;;;;12.93;5.50;;;;;;;;;;143746;589;45021;-61
2021/06/28 13:06:56;;;;;;;13.13;5.65;;;;;;;;;;143752;586;45020;-61
2021/06/28 13:09:26;;;;;;;10.63;5.68;;;;;;;;;;143745;617;47020;-62
2021/06/28 13:11:58;;;;;;;13.10;5.35;;;;;;;;;;143745;672;47013;-62
2021/06/28 13:14:32;;;;;;;14.40;5.70;;;;;;;;;;143744;566;45020;-61
2021/06/28 13:17:29;;;;;;;11.63;5.18;;;;;;;;;;143751;564;45020;-61
2021/06/28 13:19:57;;;;;;;13.75;5.47;;;;;;;;;;143747;651;47020;-62
2021/06/28 13:22:24;;;;;;;10.98;5.70;;;;;;;;;;143747;644;46012;-62
2021/06/28 13:24:53;;;;;;;13.05;5.90;;;;;;;;;;143746;596;45020;-62
2021/06/28 13:27:28;;;;;;;16.67;5.78;;;;;;;;;;143751;607;46021;-62
2021/06/28 13:29:55;;;;;;;12.30;6.00;;;;;;;;;;143746;619;47022;-62
2021/06/28 13:32:27;;;;;;;14.87;5.45;;;;;;;;;;143746;644;46013;-61
2021/06/28 13:34:56;;;;;;;15.98;6.20;;;;;;;;;;143748;611;45021;-61
2021/06/28 13:37:32;;;;;;;15.73;6.25;;;;;;;;;;143752;617;46020;-62
2021/06/28 13:40:03;;;;;;;16.42;5.97;;;;;;;;;;143739;592;47022;-61
2021/06/28 13:42:59;;;;;;;11.07;5.28;;;;;;;;;;143743;631;47917;-61
2021/06/28 13:45:28;;;;;;;17.95;6.15;;;;;;;;;;143744;593;45022;-61
2021/06/28 13:48:11;;;;;;;15.77;5.45;;;;;;;;;;143750;669;45021;-62
2021/06/28 13:50:41;;;;;;;14.65;5.97;;;;;;;;;;143746;583;47020;-61
2021/06/28 13:53:16;;;;;;;12.80;6.22;;;;;;;;;;143744;580;47012;-62
2021/06/28 13:55:51;;;;;;;15.45;5.90;;;;;;;;;;143748;623;45021;-62
2021/06/28 13:58:26;;;;;;;15.77;5.68;;;;;;;;;;143751;611;45021;-62
2021/06/28 14:00:58;;;;;;;14.38;6.18;;;;;;;;;;143746;632;47020;-62
2021/06/28 14:03:25;;;;;;;13.23;4.82;;;;;;;;;;143746;611;47012;-62
2021/06/28 14:05:53;;;;;;;18.02;5.70;;;;;;;;;;143743;569;45021;-62
2021/06/28 14:08:21;;;;;;;17.87;6.00;;;;;;;;;;143750;623;46020;-63
2021/06/28 14:10:50;;;;;;;12.18;5.20;;;;;;;;;;143747;618;47021;-63
2021/06/28 14:13:18;;;;;;;12.90;5.18;;;;;;;;;;143746;638;46012;-62
2021/06/28 14:15:46;;;;;;;12.15;5.35;;;;;;;;;;143747;620;45020;-62
2021/06/28 14:18:13;;;;;;;14.80;5.20;;;;;;;;;;143751;579;45021;-62
2021/06/28 14:20:41;;;;;;;12.63;5.25;;;;;;;;;;143746;573;47020;-62
2021/06/28 14:23:08;;;;;;;11.38;5.32;;;;;;;;;;143747;640;46024;-62
2021/06/28 14:25:35;;;;;;;15.20;5.45;;;;;;;;;;143748;664;45021;-62
2021/06/28 14:28:02;;;;;;;14.20;5.60;;;;;;;;;;143752;647;45021;-62
2021/06/28 14:30:29;;;;;;;12.20;5.57;;;;;;;;;;143741;587;47020;-62
2021/06/28 14:32:56;;;;;;;13.27;5.55;;;;;;;;;;143745;604;46013;-62
2021/06/28 14:35:24;;;;;;;14.48;5.30;;;;;;;;;;143747;690;45021;-63
2021/06/28 14:37:51;;;;;;;9.02;5.07;;;;;;;;;;143751;577;46020;-63
2021/06/28 14:40:18;;;;;;;15.52;5.10;;;;;;;;;;143747;611;47022;-62
2021/06/28 14:42:45;;;;;;;13.43;5.78;;;;;;;;;;143746;582;47012;-63
2021/06/28 14:45:14;;;;;;;13.82;6.10;;;;;;;;;;143748;580;46020;-62
2021/06/28 14:47:42;;;;;;;14.35;5.45;;;;;;;;;;143752;585;46020;-62